Time;durP1;ratioP1;P1;durP2;ratioP2;P2;SDS_P1;SDS_P2;PMS_P1;PMS_P2;Temp;Humidity;BMP_temperature;BMP_pressure;BME280_temperature;BME280_humidity;BME280_pressure;Samples;Min_cycle;Max_cycle;Signal;HPM_P1;HPM_P2
2023/08/13 00:00:34;;;;;;;12.43;8.27;;;19.50;99.90;;;;;;5054453;28;20025;-69
2023/08/13 00:03:00;;;;;;;11.55;8.75;;;19.50;99.90;;;;;;5054297;28;20021;-69
2023/08/13 00:05:26;;;;;;;13.38;8.43;;;19.40;99.90;;;;;;5054857;28;20488;-68
2023/08/13 00:07:52;;;;;;;11.80;8.68;;;19.40;99.90;;;;;;5054450;28;20017;-69
2023/08/13 00:10:17;;;;;;;16.40;8.45;;;19.40;99.90;;;;;;5054316;28;20417;-68
2023/08/13 00:12:43;;;;;;;16.02;9.57;;;19.30;99.90;;;;;;5054283;28;20021;-67
2023/08/13 00:15:10;;;;;;;16.13;8.70;;;19.30;99.90;;;;;;5053915;28;20396;-68
2023/08/13 00:17:36;;;;;;;11.95;8.63;;;19.30;99.90;;;;;;5054208;28;20039;-68
2023/08/13 00:20:04;;;;;;;13.00;8.60;;;19.20;99.90;;;;;;5052823;28;20415;-69
2023/08/13 00:22:29;;;;;;;12.75;7.53;;;19.20;99.90;;;;;;5053824;28;20523;-69
2023/08/13 00:24:55;;;;;;;13.43;8.10;;;19.20;99.90;;;;;;5054339;28;20105;-67
2023/08/13 00:27:21;;;;;;;11.23;7.57;;;19.20;99.90;;;;;;5054234;28;20018;-68
2023/08/13 00:29:46;;;;;;;10.95;8.30;;;19.10;99.90;;;;;;5054467;28;20028;-68
2023/08/13 00:32:12;;;;;;;9.40;7.50;;;19.10;99.90;;;;;;5053962;28;20024;-67
2023/08/13 00:34:38;;;;;;;23.90;8.02;;;19.10;99.90;;;;;;5054599;28;20484;-68
2023/08/13 00:37:04;;;;;;;15.32;6.90;;;19.00;99.90;;;;;;5053571;28;20021;-67
2023/08/13 00:39:29;;;;;;;13.15;8.10;;;19.00;99.90;;;;;;5053628;28;20460;-68
2023/08/13 00:41:55;;;;;;;10.48;7.72;;;19.00;99.90;;;;;;5053809;28;20032;-68
2023/08/13 00:44:21;;;;;;;18.90;8.18;;;19.00;99.90;;;;;;5054513;28;20028;-67
2023/08/13 00:46:46;;;;;;;12.43;8.80;;;18.90;99.90;;;;;;5053662;28;20453;-68
2023/08/13 00:49:14;;;;;;;10.75;7.68;;;18.90;99.90;;;;;;5054530;28;20086;-68
2023/08/13 00:51:40;;;;;;;12.45;7.93;;;18.90;99.90;;;;;;5053610;28;20033;-68
2023/08/13 00:54:07;;;;;;;16.77;8.48;;;18.90;99.90;;;;;;5053920;28;20017;-67
2023/08/13 00:56:34;;;;;;;21.27;7.50;;;18.90;99.90;;;;;;5053644;28;20036;-68
2023/08/13 00:59:00;;;;;;;13.32;7.15;;;18.90;99.90;;;;;;5052842;28;20384;-68
2023/08/13 01:01:26;;;;;;;17.15;7.72;;;19.00;99.90;;;;;;5053630;28;20024;-68
2023/08/13 01:03:52;;;;;;;41.20;7.43;;;19.00;99.90;;;;;;5053623;28;20075;-68
2023/08/13 01:06:39;;;;;;;44.80;7.47;;;19.00;99.90;;;;;;5053574;28;20082;-68
2023/08/13 01:09:37;;;;;;;25.27;7.53;;;18.90;99.90;;;;;;5053752;28;20474;-68
2023/08/13 01:12:11;;;;;;;14.07;7.43;;;18.90;99.90;;;;;;5045917;28;20119;-68
2023/08/13 01:14:52;;;;;;;28.77;8.52;;;18.80;99.90;;;;;;5053793;28;20017;-68
2023/08/13 01:17:18;;;;;;;48.80;7.80;;;18.90;99.90;;;;;;5053735;28;20098;-68
2023/08/13 01:19:44;;;;;;;16.85;7.53;;;18.90;99.90;;;;;;5053902;28;20037;-68
2023/08/13 01:22:10;;;;;;;28.75;8.18;;;18.90;99.90;;;;;;5053416;28;20431;-68
2023/08/13 01:24:35;;;;;;;16.67;7.88;;;18.90;99.90;;;;;;5053914;28;20021;-68
2023/08/13 01:27:16;;;;;;;14.30;7.70;;;18.90;99.90;;;;;;5053638;28;20424;-68
2023/08/13 01:30:06;;;;;;;15.73;7.78;;;18.80;99.90;;;;;;5054103;28;20032;-67
2023/08/13 01:32:37;;;;;;;11.45;7.57;;;18.90;99.90;;;;;;5053969;28;20115;-68
2023/08/13 01:35:05;;;;;;;26.17;7.40;;;18.90;99.90;;;;;;5053696;28;20449;-68
2023/08/13 01:37:30;;;;;;;41.15;8.27;;;18.90;99.90;;;;;;5053339;28;20458;-68
2023/08/13 01:39:56;;;;;;;59.13;8.52;;;19.00;99.90;;;;;;5053222;28;20028;-68
2023/08/13 01:42:22;;;;;;;47.30;8.15;;;18.90;99.90;;;;;;5053253;28;20451;-67
2023/08/13 01:44:47;;;;;;;15.40;7.60;;;18.80;99.90;;;;;;5053779;28;20036;-68
2023/08/13 01:47:13;;;;;;;13.63;8.02;;;18.90;99.90;;;;;;5053388;28;20020;-68
2023/08/13 01:49:39;;;;;;;15.13;8.25;;;18.90;99.90;;;;;;5053435;28;20052;-68
2023/08/13 01:52:05;;;;;;;55.35;8.68;;;18.80;99.90;;;;;;5053192;28;20098;-68
2023/08/13 01:54:30;;;;;;;11.38;6.95;;;18.90;99.90;;;;;;5052784;28;20025;-68
2023/08/13 01:56:56;;;;;;;11.13;7.70;;;18.90;99.90;;;;;;5053137;28;20025;-68
2023/08/13 01:59:21;;;;;;;16.52;8.15;;;18.90;99.90;;;;;;5053072;28;20025;-68
2023/08/13 02:01:47;;;;;;;18.42;7.00;;;18.90;99.90;;;;;;5052940;28;20044;-68
2023/08/13 02:04:12;;;;;;;16.63;8.55;;;18.90;99.90;;;;;;5053008;28;20134;-68
2023/08/13 02:06:38;;;;;;;19.75;8.20;;;18.90;99.90;;;;;;5053289;28;20032;-67
2023/08/13 02:09:04;;;;;;;21.08;8.98;;;18.90;99.90;;;;;;5053238;28;20096;-68
2023/08/13 02:11:29;;;;;;;30.35;7.80;;;18.90;99.90;;;;;;5053212;28;20056;-68
2023/08/13 02:13:55;;;;;;;24.08;8.65;;;19.00;99.90;;;;;;5056839;28;20027;-67
2023/08/13 02:16:21;;;;;;;17.70;8.25;;;18.90;99.90;;;;;;5056611;28;20028;-68
2023/08/13 02:18:46;;;;;;;21.88;7.22;;;18.90;99.90;;;;;;5057109;28;20032;-68
2023/08/13 02:21:12;;;;;;;49.03;8.23;;;18.90;99.90;;;;;;5056436;28;20067;-68
2023/08/13 02:23:38;;;;;;;14.52;7.55;;;18.80;99.90;;;;;;5056406;28;20047;-68
2023/08/13 02:26:03;;;;;;;19.30;7.40;;;18.80;99.90;;;;;;5056642;28;20032;-68
2023/08/13 02:28:29;;;;;;;14.88;7.93;;;18.80;99.90;;;;;;5056021;28;20017;-68
2023/08/13 02:30:55;;;;;;;10.88;7.55;;;18.80;99.90;;;;;;5056356;28;20025;-68
2023/08/13 02:33:20;;;;;;;11.40;7.63;;;18.80;99.90;;;;;;5056507;28;20144;-68
2023/08/13 02:35:46;;;;;;;10.23;7.28;;;18.80;99.90;;;;;;5056161;28;20120;-68
2023/08/13 02:38:11;;;;;;;8.90;7.03;;;18.80;99.90;;;;;;5056478;28;20360;-69
2023/08/13 02:40:37;;;;;;;11.00;8.05;;;18.80;99.90;;;;;;5056094;28;20025;-68
2023/08/13 02:43:03;;;;;;;13.25;8.27;;;18.80;99.90;;;;;;5056094;28;20108;-68
2023/08/13 02:45:29;;;;;;;94.13;10.48;;;18.80;99.90;;;;;;5056022;28;20039;-68
2023/08/13 02:47:56;;;;;;;130.95;9.60;;;18.80;99.90;;;;;;5056010;28;20028;-68
2023/08/13 02:50:22;;;;;;;235.73;10.52;;;18.70;99.90;;;;;;5055808;28;20135;-67
2023/08/13 02:52:48;;;;;;;10.20;6.88;;;18.70;99.90;;;;;;5055603;28;20108;-68
2023/08/13 02:55:13;;;;;;;42.53;8.05;;;18.60;99.90;;;;;;5055716;28;20025;-68
2023/08/13 02:57:39;;;;;;;19.10;8.27;;;18.70;99.90;;;;;;5055762;28;20024;-68
2023/08/13 03:00:05;;;;;;;9.40;6.93;;;18.60;99.90;;;;;;5055650;28;20135;-68
2023/08/13 03:02:31;;;;;;;12.20;7.30;;;18.60;99.90;;;;;;5055587;28;20083;-68
2023/08/13 03:04:57;;;;;;;13.10;7.45;;;18.60;99.90;;;;;;5055923;28;20021;-68
2023/08/13 03:07:23;;;;;;;10.52;8.00;;;18.70;99.90;;;;;;5055620;28;20078;-67
2023/08/13 03:09:49;;;;;;;19.27;8.10;;;18.70;99.90;;;;;;5055851;28;20037;-68
2023/08/13 03:12:14;;;;;;;9.30;7.50;;;18.70;99.90;;;;;;5055544;28;20021;-68
2023/08/13 03:14:41;;;;;;;12.05;8.27;;;18.70;99.90;;;;;;5055495;28;20110;-68
2023/08/13 03:17:07;;;;;;;225.90;10.00;;;18.60;99.90;;;;;;5055614;28;20021;-67
2023/08/13 03:19:33;;;;;;;17.85;8.40;;;18.70;99.90;;;;;;5056257;28;20048;-67
2023/08/13 03:21:59;;;;;;;30.42;9.05;;;18.60;99.90;;;;;;5055192;28;20454;-67
2023/08/13 03:24:24;;;;;;;47.50;7.78;;;18.60;99.90;;;;;;5055341;28;20029;-67
2023/08/13 03:26:50;;;;;;;222.95;10.43;;;18.70;99.90;;;;;;5055515;28;20083;-68
2023/08/13 03:29:15;;;;;;;628.45;14.63;;;18.60;99.90;;;;;;5055212;28;20032;-67
2023/08/13 03:31:41;;;;;;;89.28;8.55;;;18.60;99.90;;;;;;5055423;28;20024;-67
2023/08/13 03:34:07;;;;;;;322.58;11.68;;;18.50;99.90;;;;;;5055089;28;20053;-67
2023/08/13 03:36:32;;;;;;;142.90;8.23;;;18.50;99.90;;;;;;5054784;28;20060;-67
2023/08/13 03:38:58;;;;;;;10.48;7.30;;;18.50;99.90;;;;;;5055234;28;20031;-67
2023/08/13 03:41:23;;;;;;;231.35;11.13;;;18.50;99.90;;;;;;5054940;28;20074;-67
2023/08/13 03:43:49;;;;;;;75.15;7.18;;;18.50;99.90;;;;;;5056017;28;20029;-67
2023/08/13 03:46:15;;;;;;;45.83;7.28;;;18.50;99.90;;;;;;5055128;28;20138;-68
2023/08/13 03:48:40;;;;;;;34.95;8.07;;;18.50;99.90;;;;;;5054623;28;20037;-67
2023/08/13 03:51:06;;;;;;;9.75;7.00;;;18.50;99.90;;;;;;5054804;28;20036;-68
2023/08/13 03:53:31;;;;;;;14.80;7.22;;;18.50;99.90;;;;;;5054730;28;20032;-68
2023/08/13 03:55:57;;;;;;;9.80;7.00;;;18.60;99.90;;;;;;5054716;28;20017;-67
2023/08/13 03:58:24;;;;;;;14.05;7.93;;;18.50;99.90;;;;;;5054616;28;20036;-68
2023/08/13 04:00:49;;;;;;;12.68;7.50;;;18.60;99.90;;;;;;5054512;28;20017;-68
2023/08/13 04:03:15;;;;;;;81.40;8.80;;;18.60;99.90;;;;;;5054584;28;20024;-68
2023/08/13 04:05:40;;;;;;;207.07;10.35;;;18.60;99.90;;;;;;5054535;28;20388;-67
2023/08/13 04:08:06;;;;;;;51.55;7.15;;;18.60;99.90;;;;;;5054413;28;20052;-68
2023/08/13 04:10:32;;;;;;;28.92;6.68;;;18.60;99.90;;;;;;5054362;28;20047;-67
2023/08/13 04:13:00;;;;;;;42.25;7.40;;;18.60;99.90;;;;;;5054915;28;20021;-68
2023/08/13 04:15:27;;;;;;;8.95;6.78;;;18.60;99.90;;;;;;5054880;28;20070;-68
2023/08/13 04:17:52;;;;;;;15.00;7.53;;;18.60;99.90;;;;;;5054560;28;20083;-68
2023/08/13 04:20:18;;;;;;;12.82;7.00;;;18.70;99.90;;;;;;5054167;28;20037;-67
2023/08/13 04:22:44;;;;;;;11.77;7.63;;;18.70;99.90;;;;;;5054084;28;20503;-67
2023/08/13 04:25:09;;;;;;;13.57;6.93;;;18.60;99.90;;;;;;5053791;28;20458;-68
2023/08/13 04:27:35;;;;;;;14.23;7.85;;;18.60;99.90;;;;;;5054767;28;20112;-68
2023/08/13 04:30:01;;;;;;;213.02;9.32;;;18.70;99.90;;;;;;5054894;28;20122;-68
2023/08/13 04:32:27;;;;;;;80.63;7.82;;;18.60;99.90;;;;;;5054632;28;20437;-68
2023/08/13 04:34:52;;;;;;;23.42;6.78;;;18.60;99.90;;;;;;5053521;28;20025;-68
2023/08/13 04:37:18;;;;;;;29.80;7.00;;;18.60;99.90;;;;;;5054301;28;20029;-68
2023/08/13 04:39:44;;;;;;;55.28;9.00;;;18.70;99.90;;;;;;5054507;28;20100;-68
2023/08/13 04:42:09;;;;;;;304.23;12.13;;;18.70;99.90;;;;;;5054236;28;20021;-68
2023/08/13 04:44:35;;;;;;;35.13;7.97;;;18.80;99.90;;;;;;5053796;28;20315;-68
2023/08/13 04:47:01;;;;;;;13.95;8.25;;;18.80;99.90;;;;;;5054306;28;20028;-68
2023/08/13 04:49:26;;;;;;;15.85;8.15;;;18.80;99.90;;;;;;5053773;28;20458;-68
2023/08/13 04:51:52;;;;;;;12.63;8.45;;;18.70;99.90;;;;;;5054259;28;20425;-68
2023/08/13 04:54:17;;;;;;;12.45;6.63;;;18.70;99.90;;;;;;5053649;28;20446;-68
2023/08/13 04:56:43;;;;;;;12.95;7.28;;;18.60;99.90;;;;;;5053372;28;20021;-68
2023/08/13 04:59:09;;;;;;;16.33;7.53;;;18.60;99.90;;;;;;5053590;28;20040;-68
2023/08/13 05:01:34;;;;;;;9.77;7.00;;;18.60;99.90;;;;;;5053550;28;20388;-68
2023/08/13 05:04:00;;;;;;;10.20;7.50;;;18.70;99.90;;;;;;5054081;28;20460;-67
2023/08/13 05:06:26;;;;;;;11.75;7.55;;;18.70;99.90;;;;;;5053755;28;20125;-67
2023/08/13 05:08:51;;;;;;;9.23;6.70;;;18.60;99.90;;;;;;5052731;28;20029;-68
2023/08/13 05:11:17;;;;;;;8.75;6.32;;;18.60;99.90;;;;;;5053791;28;20100;-68
2023/08/13 05:13:42;;;;;;;11.63;6.88;;;18.70;99.90;;;;;;5053919;28;20017;-68
2023/08/13 05:16:08;;;;;;;8.70;6.57;;;18.80;99.90;;;;;;5053068;28;20369;-68
2023/08/13 05:18:34;;;;;;;14.40;6.68;;;18.80;99.90;;;;;;5053820;28;20035;-68
2023/08/13 05:20:59;;;;;;;9.43;6.78;;;18.80;99.90;;;;;;5053238;28;20028;-68
2023/08/13 05:23:25;;;;;;;10.38;6.13;;;18.90;99.90;;;;;;5053723;28;20025;-68
2023/08/13 05:25:50;;;;;;;10.57;6.40;;;18.80;99.90;;;;;;5052962;28;20025;-68
2023/08/13 05:28:16;;;;;;;8.68;6.50;;;18.90;99.90;;;;;;5053433;28;20032;-68
2023/08/13 05:30:42;;;;;;;8.82;5.95;;;19.00;99.90;;;;;;5053431;28;20021;-68
2023/08/13 05:33:07;;;;;;;8.95;6.55;;;19.00;99.90;;;;;;5053154;28;20032;-68
2023/08/13 05:35:33;;;;;;;11.98;6.57;;;19.10;99.90;;;;;;5053113;28;20484;-68
2023/08/13 05:37:58;;;;;;;9.80;6.63;;;19.20;99.90;;;;;;5053381;28;20100;-68
2023/08/13 05:40:24;;;;;;;9.90;6.53;;;19.30;99.90;;;;;;5052972;28;20029;-68
2023/08/13 05:42:50;;;;;;;8.90;6.93;;;19.40;99.90;;;;;;5053372;28;20033;-68
2023/08/13 05:45:17;;;;;;;26.30;7.10;;;19.40;99.90;;;;;;5053694;28;20020;-67
2023/08/13 05:47:43;;;;;;;10.10;6.90;;;19.40;99.90;;;;;;5057169;28;20033;-68
2023/08/13 05:50:09;;;;;;;10.15;7.40;;;19.30;99.90;;;;;;5057731;28;20057;-67
2023/08/13 05:52:34;;;;;;;12.02;7.10;;;19.20;99.90;;;;;;5057403;28;20028;-68
2023/08/13 05:55:00;;;;;;;8.43;6.65;;;19.10;99.90;;;;;;5056855;28;20480;-68
2023/08/13 05:57:25;;;;;;;10.25;7.28;;;19.10;99.90;;;;;;5056791;28;20508;-68
2023/08/13 05:59:51;;;;;;;84.20;11.23;;;19.20;99.90;;;;;;5056662;28;20030;-68
2023/08/13 06:02:17;;;;;;;12.60;7.55;;;19.10;99.90;;;;;;5056442;28;20103;-67
2023/08/13 06:04:42;;;;;;;18.83;7.63;;;19.00;99.90;;;;;;5056582;28;20356;-68
2023/08/13 06:07:08;;;;;;;19.52;8.35;;;19.00;99.90;;;;;;5057151;28;20043;-67
2023/08/13 06:09:34;;;;;;;13.30;7.65;;;18.90;99.90;;;;;;5057122;28;20092;-67
2023/08/13 06:12:00;;;;;;;11.48;7.82;;;18.90;99.90;;;;;;5056548;28;20025;-68
2023/08/13 06:14:26;;;;;;;9.93;7.55;;;18.90;99.90;;;;;;5056395;28;20503;-68
2023/08/13 06:16:51;;;;;;;11.05;7.40;;;18.90;99.90;;;;;;5057063;28;20021;-68
2023/08/13 06:19:18;;;;;;;18.52;8.52;;;18.90;99.90;;;;;;5056790;28;20025;-67
2023/08/13 06:21:44;;;;;;;12.35;8.75;;;18.90;99.90;;;;;;5056595;28;20090;-67
2023/08/13 06:24:09;;;;;;;10.93;7.60;;;19.00;99.90;;;;;;5056635;28;20419;-67
2023/08/13 06:26:35;;;;;;;18.70;8.70;;;19.00;99.90;;;;;;5056349;28;20335;-68
2023/08/13 06:29:01;;;;;;;12.15;8.73;;;19.10;99.90;;;;;;5056302;28;20465;-67
2023/08/13 06:31:26;;;;;;;15.50;8.68;;;19.10;99.90;;;;;;5056256;28;20155;-67
2023/08/13 06:33:52;;;;;;;12.75;8.27;;;19.10;99.90;;;;;;5056189;28;20366;-68
2023/08/13 06:36:17;;;;;;;15.00;8.35;;;19.10;99.90;;;;;;5056432;28;20185;-67
2023/08/13 06:38:43;;;;;;;12.20;8.18;;;19.10;99.90;;;;;;5055856;28;20519;-67
2023/08/13 06:41:09;;;;;;;11.32;8.45;;;19.20;99.90;;;;;;5056396;28;20021;-67
2023/08/13 06:43:35;;;;;;;14.75;8.27;;;19.20;99.90;;;;;;5056160;28;20033;-67
2023/08/13 06:46:01;;;;;;;11.32;8.30;;;19.30;99.90;;;;;;5056362;28;20028;-67
2023/08/13 06:48:31;;;;;;;11.02;7.82;;;19.30;99.90;;;;;;5055987;28;20123;-67
2023/08/13 06:50:57;;;;;;;11.27;7.82;;;19.40;99.90;;;;;;5056467;28;20033;-67
2023/08/13 06:53:24;;;;;;;10.35;7.70;;;19.50;99.90;;;;;;5056464;28;20048;-67
2023/08/13 06:55:50;;;;;;;9.52;7.30;;;19.60;99.90;;;;;;5055405;28;20024;-68
2023/08/13 06:58:16;;;;;;;11.18;7.40;;;19.80;99.90;;;;;;5055087;28;20040;-68
2023/08/13 07:00:42;;;;;;;13.85;8.07;;;19.90;99.90;;;;;;5055482;28;20025;-67
2023/08/13 07:03:08;;;;;;;10.88;7.63;;;20.00;99.90;;;;;;5055865;28;20063;-67
2023/08/13 07:05:39;;;;;;;12.43;8.07;;;20.00;99.90;;;;;;5055373;28;20028;-68
2023/08/13 07:08:05;;;;;;;10.10;7.10;;;20.00;99.90;;;;;;5055429;28;20391;-68
2023/08/13 07:10:31;;;;;;;13.30;7.28;;;20.00;99.90;;;;;;5055367;28;20103;-68
2023/08/13 07:12:57;;;;;;;10.82;7.30;;;20.00;99.90;;;;;;5055898;28;20049;-68
2023/08/13 07:15:23;;;;;;;13.40;7.43;;;20.00;99.90;;;;;;5055627;28;20094;-67
2023/08/13 07:17:48;;;;;;;12.23;8.25;;;20.00;99.90;;;;;;5055836;28;20025;-68
2023/08/13 07:20:14;;;;;;;11.35;8.20;;;20.00;99.90;;;;;;5055219;28;20372;-68
2023/08/13 07:22:44;;;;;;;14.10;8.65;;;19.90;99.90;;;;;;5055579;28;20024;-67
2023/08/13 07:25:11;;;;;;;11.38;8.00;;;19.80;99.90;;;;;;5055310;28;20408;-67
2023/08/13 07:27:39;;;;;;;11.77;8.00;;;19.70;99.90;;;;;;5055192;28;20031;-68
2023/08/13 07:30:07;;;;;;;12.07;8.73;;;19.70;99.90;;;;;;5055934;28;20036;-67
2023/08/13 07:32:36;;;;;;;12.55;8.52;;;19.70;99.90;;;;;;5055674;28;20037;-68
2023/08/13 07:35:02;;;;;;;17.13;8.93;;;19.70;99.90;;;;;;5055150;28;20020;-67
2023/08/13 07:37:28;;;;;;;14.20;8.75;;;19.80;99.90;;;;;;5055095;28;20028;-67
2023/08/13 07:39:55;;;;;;;15.23;8.57;;;19.80;99.90;;;;;;5055278;28;20100;-67
2023/08/13 07:42:21;;;;;;;11.45;7.60;;;19.90;99.90;;;;;;5055313;28;20025;-68
2023/08/13 07:44:47;;;;;;;13.88;9.13;;;20.00;99.90;;;;;;5054941;28;20603;-68
2023/08/13 07:47:13;;;;;;;11.13;7.80;;;20.00;99.90;;;;;;5054760;28;20082;-68
2023/08/13 07:49:39;;;;;;;12.65;7.80;;;20.00;99.90;;;;;;5054917;28;20053;-68
2023/08/13 07:52:05;;;;;;;12.60;8.02;;;20.00;99.90;;;;;;5055080;28;20024;-68
2023/08/13 07:54:30;;;;;;;12.68;7.07;;;20.00;99.90;;;;;;5054770;28;20021;-68
2023/08/13 07:56:56;;;;;;;10.48;7.40;;;20.00;99.90;;;;;;5054689;28;20025;-68
2023/08/13 07:59:22;;;;;;;11.38;7.50;;;20.10;99.90;;;;;;5054953;28;20032;-67
2023/08/13 08:01:48;;;;;;;13.82;8.20;;;20.20;99.90;;;;;;5054635;28;20024;-67
2023/08/13 08:04:14;;;;;;;15.48;8.50;;;20.20;99.90;;;;;;5054600;28;20481;-67
2023/08/13 08:06:39;;;;;;;11.40;8.15;;;20.20;99.90;;;;;;5054878;28;20044;-67
2023/08/13 08:09:05;;;;;;;14.30;7.47;;;20.30;99.90;;;;;;5053388;28;20066;-67
2023/08/13 08:11:31;;;;;;;12.00;8.23;;;20.20;99.90;;;;;;5054435;28;20025;-68
2023/08/13 08:13:57;;;;;;;12.90;9.05;;;20.30;99.90;;;;;;5055282;28;20082;-67
2023/08/13 08:16:23;;;;;;;14.88;7.65;;;20.30;99.90;;;;;;5054098;28;20024;-66
2023/08/13 08:18:48;;;;;;;24.13;8.13;;;20.30;99.90;;;;;;5054451;28;20468;-67
2023/08/13 08:21:14;;;;;;;15.50;7.60;;;20.40;99.90;;;;;;5054838;28;20331;-67
2023/08/13 08:23:40;;;;;;;12.40;7.97;;;20.40;99.90;;;;;;5054251;28;20366;-67
2023/08/13 08:26:06;;;;;;;13.43;8.00;;;20.40;99.90;;;;;;5054226;28;20346;-67
2023/08/13 08:28:32;;;;;;;9.98;7.50;;;20.40;99.90;;;;;;5054444;28;20028;-68
2023/08/13 08:30:57;;;;;;;10.95;7.05;;;20.40;99.90;;;;;;5054418;28;20029;-67
2023/08/13 08:33:23;;;;;;;12.70;8.15;;;20.40;99.90;;;;;;5054115;28;20021;-67
2023/08/13 08:35:49;;;;;;;15.95;7.82;;;20.50;99.90;;;;;;5054118;28;20479;-67
2023/08/13 08:38:15;;;;;;;11.95;8.18;;;20.50;99.90;;;;;;5054586;28;20020;-67
2023/08/13 08:40:46;;;;;;;9.82;7.38;;;20.60;99.90;;;;;;5054644;28;20049;-67
2023/08/13 08:43:13;;;;;;;12.30;7.28;;;20.60;99.90;;;;;;5053879;28;20032;-67
2023/08/13 08:45:39;;;;;;;20.70;8.05;;;20.70;99.90;;;;;;5053839;28;20040;-66
2023/08/13 08:48:06;;;;;;;11.43;7.68;;;20.80;99.90;;;;;;5053492;28;20339;-66
2023/08/13 08:50:35;;;;;;;10.45;7.28;;;20.80;99.90;;;;;;5053581;28;20468;-66
2023/08/13 08:53:01;;;;;;;14.07;7.93;;;20.80;99.90;;;;;;5054345;28;20019;-67
2023/08/13 08:55:27;;;;;;;10.48;7.65;;;20.80;99.90;;;;;;5054045;28;20029;-66
2023/08/13 08:57:54;;;;;;;14.93;7.35;;;20.80;99.90;;;;;;5053881;28;20013;-68
2023/08/13 09:00:20;;;;;;;12.75;7.80;;;20.90;99.90;;;;;;5054160;28;20036;-66
2023/08/13 09:02:45;;;;;;;7.97;6.30;;;21.00;99.90;;;;;;5054013;28;20380;-67
2023/08/13 09:05:11;;;;;;;9.77;6.43;;;21.10;99.90;;;;;;5053609;28;20060;-67
2023/08/13 09:07:42;;;;;;;9.48;5.43;;;21.20;99.90;;;;;;5053620;28;20025;-67
2023/08/13 09:10:08;;;;;;;11.02;6.57;;;21.50;99.90;;;;;;5054115;28;20028;-67
2023/08/13 09:12:41;;;;;;;6.43;4.50;;;21.60;99.90;;;;;;5053832;28;20057;-67
2023/08/13 09:15:11;;;;;;;7.50;4.68;;;21.60;99.90;;;;;;5053446;28;20032;-67
2023/08/13 09:17:38;;;;;;;9.27;5.47;;;21.80;99.90;;;;;;5053878;28;20071;-68
2023/08/13 09:20:17;;;;;;;7.25;4.72;;;22.10;99.90;;;;;;5053488;28;20037;-68
2023/08/13 09:22:50;;;;;;;9.65;5.38;;;22.30;99.90;;;;;;5057500;28;20025;-68
2023/08/13 09:25:17;;;;;;;10.23;5.60;;;22.50;99.90;;;;;;5057432;28;20052;-67
2023/08/13 09:27:44;;;;;;;7.97;5.18;;;22.70;99.90;;;;;;5057879;28;20032;-68
2023/08/13 09:30:12;;;;;;;9.10;5.38;;;23.10;99.90;;;;;;5057307;28;20031;-68
2023/08/13 09:32:38;;;;;;;7.53;5.47;;;23.20;99.90;;;;;;5057251;28;20163;-68
2023/08/13 09:35:04;;;;;;;8.40;5.75;;;23.20;99.90;;;;;;5057196;28;20365;-68
2023/08/13 09:37:30;;;;;;;9.15;5.63;;;23.20;99.90;;;;;;5057624;28;20051;-68
2023/08/13 09:39:56;;;;;;;12.73;5.50;;;23.20;99.90;;;;;;5057041;28;20017;-68
2023/08/13 09:42:26;;;;;;;7.72;5.60;;;23.00;99.90;;;;;;5057104;28;20399;-68
2023/08/13 09:44:55;;;;;;;10.88;6.00;;;22.80;99.90;;;;;;5057531;28;20028;-68
2023/08/13 09:47:27;;;;;;;9.80;5.65;;;22.90;99.90;;;;;;5056801;28;20079;-68
2023/08/13 09:49:56;;;;;;;10.50;5.75;;;23.00;99.90;;;;;;5056681;28;20044;-67
2023/08/13 09:52:26;;;;;;;13.68;6.53;;;23.30;99.90;;;;;;5056794;28;20028;-68
2023/08/13 09:55:19;;;;;;;8.05;5.20;;;23.40;99.90;;;;;;5056823;28;20420;-68
2023/08/13 09:57:47;;;;;;;9.20;5.60;;;23.50;99.90;;;;;;5055558;28;20440;-69
2023/08/13 10:00:13;;;;;;;8.95;6.10;;;23.80;99.90;;;;;;5056797;28;20025;-68
2023/08/13 10:02:42;;;;;;;7.95;5.68;;;23.90;99.90;;;;;;5056753;28;20025;-68
2023/08/13 10:05:09;;;;;;;11.10;6.45;;;23.90;99.90;;;;;;5056739;28;20360;-69
2023/08/13 10:07:39;;;;;;;12.45;6.55;;;24.00;99.90;;;;;;5056460;28;20069;-68
2023/08/13 10:10:05;;;;;;;10.25;6.15;;;24.00;99.90;;;;;;5056838;28;20032;-68
2023/08/13 10:12:31;;;;;;;9.48;5.70;;;24.20;99.90;;;;;;5056913;28;20021;-69
2023/08/13 10:15:00;;;;;;;9.75;5.40;;;24.40;99.90;;;;;;5056565;28;20032;-68
2023/08/13 10:17:28;;;;;;;10.82;5.50;;;24.70;99.90;;;;;;5056433;28;20078;-68
2023/08/13 10:19:56;;;;;;;9.35;6.25;;;24.90;99.90;;;;;;5056463;28;20071;-68
2023/08/13 10:22:40;;;;;;;8.68;5.53;;;25.20;99.90;;;;;;5057318;28;20061;-68
2023/08/13 10:25:07;;;;;;;8.57;5.80;;;25.30;99.90;;;;;;5056509;28;20021;-69
2023/08/13 10:27:37;;;;;;;10.27;5.30;;;25.40;99.90;;;;;;5056386;28;20021;-70
2023/08/13 10:30:11;;;;;;;8.45;5.35;;;25.70;99.90;;;;;;5056109;28;20029;-69
2023/08/13 10:32:39;;;;;;;6.78;5.03;;;26.00;99.90;;;;;;5055441;28;20032;-69
2023/08/13 10:35:28;;;;;;;6.95;5.05;;;25.70;99.90;;;;;;5056237;28;20025;-69
2023/08/13 10:37:56;;;;;;;7.93;5.43;;;25.60;99.90;;;;;;5057021;28;20016;-69
2023/08/13 10:40:22;;;;;;;8.15;5.35;;;25.40;99.90;;;;;;5054889;28;20053;-68
2023/08/13 10:42:55;;;;;;;10.55;5.38;;;25.40;99.90;;;;;;5055755;28;20337;-69
2023/08/13 10:45:30;;;;;;;8.15;5.10;;;25.40;99.90;;;;;;5056313;28;20020;-69
2023/08/13 10:47:58;;;;;;;11.20;6.15;;;25.30;99.90;;;;;;5056711;28;20027;-69
2023/08/13 10:50:38;;;;;;;8.50;5.07;;;25.50;99.90;;;;;;5036244;28;20056;-69
2023/08/13 10:53:09;;;;;;;10.25;5.03;;;25.60;99.90;;;;;;5036028;28;20033;-69
2023/08/13 10:55:42;;;;;;;8.70;5.20;;;25.90;99.90;;;;;;5035957;28;20041;-69
2023/08/13 10:58:24;;;;;;;7.30;5.22;;;26.10;99.90;;;;;;5036007;28;20018;-69
2023/08/13 11:00:49;;;;;;;9.27;4.93;;;26.20;99.90;;;;;;5036206;28;20031;-69
2023/08/13 11:03:31;;;;;;;7.20;5.05;;;26.30;99.90;;;;;;5036113;28;20029;-69
2023/08/13 11:05:57;;;;;;;10.73;4.65;;;26.60;99.90;;;;;;5035883;28;20021;-69
2023/08/13 11:08:24;;;;;;;8.85;4.78;;;26.90;99.90;;;;;;5036545;28;20029;-69
2023/08/13 11:10:51;;;;;;;6.10;4.30;;;26.60;99.90;;;;;;5035698;28;20069;-69
2023/08/13 11:13:18;;;;;;;5.97;4.63;;;26.60;99.90;;;;;;5035733;28;20025;-69
2023/08/13 11:15:54;;;;;;;10.32;4.65;;;26.20;99.90;;;;;;5035590;28;20021;-69
2023/08/13 11:18:21;;;;;;;7.88;4.60;;;26.10;99.90;;;;;;5035675;28;20025;-69
2023/08/13 11:20:47;;;;;;;7.07;4.30;;;26.10;99.90;;;;;;5035463;28;20071;-69
2023/08/13 11:23:14;;;;;;;6.47;4.50;;;26.10;99.90;;;;;;5035945;28;20100;-69
2023/08/13 11:25:40;;;;;;;10.13;4.72;;;26.20;99.90;;;;;;5035185;28;20101;-70
2023/08/13 11:28:06;;;;;;;7.78;4.50;;;26.30;99.90;;;;;;5035801;28;20108;-69
2023/08/13 11:30:32;;;;;;;6.80;4.40;;;26.70;99.90;;;;;;5035590;28;20029;-69
2023/08/13 11:32:58;;;;;;;9.38;4.53;;;27.00;99.90;;;;;;5034890;28;20025;-70
2023/08/13 11:35:24;;;;;;;14.00;4.85;;;27.20;99.90;;;;;;5035175;28;20025;-68
2023/08/13 11:37:50;;;;;;;11.52;4.78;;;27.30;99.90;;;;;;5035060;28;20025;-69
2023/08/13 11:40:16;;;;;;;5.35;3.92;;;27.70;99.90;;;;;;5035299;28;20031;-69
2023/08/13 11:42:51;;;;;;;6.97;4.20;;;28.00;99.90;;;;;;5034972;28;20028;-69
2023/08/13 11:45:16;;;;;;;5.90;4.20;;;28.20;99.90;;;;;;5034610;28;20024;-69
2023/08/13 11:47:42;;;;;;;11.15;4.07;;;28.00;99.90;;;;;;5034968;28;20026;-69
2023/08/13 11:50:21;;;;;;;7.45;4.00;;;27.90;99.90;;;;;;5053525;28;20052;-69
2023/08/13 11:53:14;;;;;;;10.70;4.00;;;27.70;99.90;;;;;;5055548;28;20107;-70
2023/08/13 11:55:45;;;;;;;4.70;3.85;;;27.90;99.90;;;;;;5055004;28;20032;-69
2023/08/13 11:58:11;;;;;;;7.22;3.95;;;27.80;99.90;;;;;;5054676;28;20035;-69
2023/08/13 12:00:37;;;;;;;10.55;4.50;;;27.70;99.90;;;;;;5054625;28;20037;-69
2023/08/13 12:03:03;;;;;;;7.68;4.18;;;27.50;99.90;;;;;;5054457;28;20025;-69
2023/08/13 12:05:31;;;;;;;7.10;4.53;;;27.30;99.90;;;;;;5054321;28;20073;-69
2023/08/13 12:08:03;;;;;;;7.57;4.40;;;27.60;99.90;;;;;;5054290;28;20568;-69
2023/08/13 12:10:28;;;;;;;8.15;3.72;;;28.10;99.90;;;;;;5054797;28;20104;-69
2023/08/13 12:12:54;;;;;;;8.48;4.40;;;28.50;99.90;;;;;;5054531;28;20102;-69
2023/08/13 12:15:24;;;;;;;7.20;3.80;;;28.80;99.90;;;;;;5054129;28;20021;-69
2023/08/13 12:17:55;;;;;;;7.40;3.90;;;28.80;99.90;;;;;;5054323;28;20028;-68
2023/08/13 12:20:22;;;;;;;8.70;4.38;;;28.90;99.90;;;;;;5054358;28;20032;-69
2023/08/13 12:22:48;;;;;;;8.45;4.00;;;29.30;99.90;;;;;;5053947;28;20033;-69
2023/08/13 12:25:14;;;;;;;9.13;4.50;;;29.30;99.90;;;;;;5054313;28;20052;-68
2023/08/13 12:27:41;;;;;;;7.55;4.07;;;29.20;99.90;;;;;;5053955;28;20029;-69
2023/08/13 12:30:08;;;;;;;9.55;4.30;;;29.40;99.90;;;;;;5053895;28;20036;-69
2023/08/13 12:32:34;;;;;;;5.97;4.03;;;28.90;99.90;;;;;;5054168;28;20563;-69
2023/08/13 12:34:59;;;;;;;8.52;4.55;;;28.40;99.90;;;;;;5053834;28;20025;-69
2023/08/13 12:37:25;;;;;;;8.43;4.43;;;28.10;99.90;;;;;;5053819;28;20078;-69